sensor_id;sensor_type;location;lat;lon;timestamp;pressure;altitude;pressure_sealevel;temperature;humidity
12182;BME280;6154;51.550;12.138;2022-08-11T00:01:13;101233.28;;;21.27;42.43
12182;BME280;6154;51.550;12.138;2022-08-11T00:03:46;101234.28;;;21.26;41.07
12182;BME280;6154;51.550;12.138;2022-08-11T00:06:23;101233.87;;;21.31;40.14
12182;BME280;6154;51.550;12.138;2022-08-11T00:08:53;101235.56;;;21.32;40.64
12182;BME280;6154;51.550;12.138;2022-08-11T00:11:31;101236.84;;;21.28;40.00
12182;BME280;6154;51.550;12.138;2022-08-11T00:14:02;101228.06;;;21.14;42.37
12182;BME280;6154;51.550;12.138;2022-08-11T00:16:30;101231.69;;;21.04;40.48
12182;BME280;6154;51.550;12.138;2022-08-11T00:19:01;101228.56;;;20.99;40.32
12182;BME280;6154;51.550;12.138;2022-08-11T00:21:30;101231.38;;;20.97;40.50
12182;BME280;6154;51.550;12.138;2022-08-11T00:24:31;101226.25;;;20.94;40.53
12182;BME280;6154;51.550;12.138;2022-08-11T00:27:30;101233.94;;;20.99;41.38
12182;BME280;6154;51.550;12.138;2022-08-11T00:29:59;101229.41;;;20.99;43.15
12182;BME280;6154;51.550;12.138;2022-08-11T00:32:27;101227.38;;;20.91;40.41
12182;BME280;6154;51.550;12.138;2022-08-11T00:34:59;101221.06;;;20.81;40.87
12182;BME280;6154;51.550;12.138;2022-08-11T00:37:49;101227.69;;;20.77;41.51
12182;BME280;6154;51.550;12.138;2022-08-11T00:40:24;101225.88;;;20.78;41.22
12182;BME280;6154;51.550;12.138;2022-08-11T00:43:00;101238.78;;;20.84;41.56
12182;BME280;6154;51.550;12.138;2022-08-11T00:46:04;101235.84;;;20.87;42.02
12182;BME280;6154;51.550;12.138;2022-08-11T00:48:44;101236.34;;;20.81;43.72
12182;BME280;6154;51.550;12.138;2022-08-11T00:51:37;101231.31;;;20.66;41.90
12182;BME280;6154;51.550;12.138;2022-08-11T00:54:54;101229.38;;;20.57;44.34
12182;BME280;6154;51.550;12.138;2022-08-11T01:00:31;101231.50;;;20.43;43.02
12182;BME280;6154;51.550;12.138;2022-08-11T01:03:10;101228.69;;;20.44;41.79
12182;BME280;6154;51.550;12.138;2022-08-11T01:05:59;101226.75;;;20.46;43.07
12182;BME280;6154;51.550;12.138;2022-08-11T01:08:54;101229.16;;;20.49;43.27
12182;BME280;6154;51.550;12.138;2022-08-11T01:11:55;101227.84;;;20.44;44.15
12182;BME280;6154;51.550;12.138;2022-08-11T01:15:04;101228.25;;;20.28;45.47
12182;BME280;6154;51.550;12.138;2022-08-11T01:18:10;101230.84;;;20.18;45.31
12182;BME280;6154;51.550;12.138;2022-08-11T01:24:55;101241.66;;;19.96;45.61
12182;BME280;6154;51.550;12.138;2022-08-11T01:31:05;101242.03;;;19.80;46.06
12182;BME280;6154;51.550;12.138;2022-08-11T01:34:20;101236.66;;;19.69;45.10
12182;BME280;6154;51.550;12.138;2022-08-11T01:40:23;101236.78;;;19.56;45.88
12182;BME280;6154;51.550;12.138;2022-08-11T01:43:09;101240.06;;;19.48;46.04
12182;BME280;6154;51.550;12.138;2022-08-11T01:46:00;101245.75;;;19.44;44.60
12182;BME280;6154;51.550;12.138;2022-08-11T01:48:38;101246.03;;;19.41;42.52
12182;BME280;6154;51.550;12.138;2022-08-11T01:51:18;101244.44;;;19.38;43.49
12182;BME280;6154;51.550;12.138;2022-08-11T01:53:53;101240.91;;;19.38;44.43
12182;BME280;6154;51.550;12.138;2022-08-11T01:56:33;101246.63;;;19.33;43.01
12182;BME280;6154;51.550;12.138;2022-08-11T01:59:15;101237.63;;;19.34;43.97
12182;BME280;6154;51.550;12.138;2022-08-11T02:01:55;101244.69;;;19.35;44.99
12182;BME280;6154;51.550;12.138;2022-08-11T02:04:33;101248.84;;;19.39;44.68
12182;BME280;6154;51.550;12.138;2022-08-11T02:07:09;101242.34;;;19.42;44.72
12182;BME280;6154;51.550;12.138;2022-08-11T02:09:55;101239.94;;;19.39;43.95
12182;BME280;6154;51.550;12.138;2022-08-11T02:12:40;101241.03;;;19.36;43.25
12182;BME280;6154;51.550;12.138;2022-08-11T02:15:26;101237.63;;;19.34;44.95
12182;BME280;6154;51.550;12.138;2022-08-11T02:18:03;101234.16;;;19.32;42.99
12182;BME280;6154;51.550;12.138;2022-08-11T02:20:36;101242.47;;;19.29;44.34
12182;BME280;6154;51.550;12.138;2022-08-11T02:23:30;101239.31;;;19.24;44.09
12182;BME280;6154;51.550;12.138;2022-08-11T02:26:32;101234.75;;;19.13;43.12
12182;BME280;6154;51.550;12.138;2022-08-11T02:29:11;101241.22;;;19.11;44.26
12182;BME280;6154;51.550;12.138;2022-08-11T02:31:46;101242.31;;;19.08;45.02
12182;BME280;6154;51.550;12.138;2022-08-11T02:35:03;101233.87;;;19.02;44.05
12182;BME280;6154;51.550;12.138;2022-08-11T02:37:44;101238.97;;;18.93;44.99
12182;BME280;6154;51.550;12.138;2022-08-11T02:40:22;101246.53;;;18.88;44.96
12182;BME280;6154;51.550;12.138;2022-08-11T02:43:03;101236.28;;;18.82;44.41
12182;BME280;6154;51.550;12.138;2022-08-11T02:45:48;101245.28;;;18.81;45.01
12182;BME280;6154;51.550;12.138;2022-08-11T02:48:30;101242.97;;;18.77;46.58
12182;BME280;6154;51.550;12.138;2022-08-11T02:51:25;101243.31;;;18.72;45.15
12182;BME280;6154;51.550;12.138;2022-08-11T02:54:04;101243.69;;;18.67;45.11
12182;BME280;6154;51.550;12.138;2022-08-11T02:56:41;101241.84;;;18.68;45.70
12182;BME280;6154;51.550;12.138;2022-08-11T02:59:22;101245.72;;;18.64;44.94
12182;BME280;6154;51.550;12.138;2022-08-11T03:02:16;101245.06;;;18.60;45.64
12182;BME280;6154;51.550;12.138;2022-08-11T03:05:01;101247.88;;;18.59;44.72
12182;BME280;6154;51.550;12.138;2022-08-11T03:07:39;101247.75;;;18.60;45.61
12182;BME280;6154;51.550;12.138;2022-08-11T03:10:13;101245.19;;;18.59;45.10
12182;BME280;6154;51.550;12.138;2022-08-11T03:12:49;101246.16;;;18.58;44.30
12182;BME280;6154;51.550;12.138;2022-08-11T03:15:42;101248.59;;;18.61;44.87
12182;BME280;6154;51.550;12.138;2022-08-11T03:18:36;101246.47;;;18.66;45.40
12182;BME280;6154;51.550;12.138;2022-08-11T03:21:14;101246.84;;;18.73;44.63
12182;BME280;6154;51.550;12.138;2022-08-11T03:23:52;101248.09;;;18.80;45.18
12182;BME280;6154;51.550;12.138;2022-08-11T03:26:28;101253.97;;;18.85;44.97
12182;BME280;6154;51.550;12.138;2022-08-11T03:29:04;101249.34;;;18.87;44.81
12182;BME280;6154;51.550;12.138;2022-08-11T03:31:43;101251.91;;;18.88;44.83
12182;BME280;6154;51.550;12.138;2022-08-11T03:34:16;101255.31;;;18.90;44.78
12182;BME280;6154;51.550;12.138;2022-08-11T03:36:58;101259.72;;;18.91;44.56
12182;BME280;6154;51.550;12.138;2022-08-11T03:39:54;101260.34;;;18.95;46.42
12182;BME280;6154;51.550;12.138;2022-08-11T03:42:32;101257.53;;;18.97;45.56
12182;BME280;6154;51.550;12.138;2022-08-11T03:45:11;101260.44;;;18.93;43.98
12182;BME280;6154;51.550;12.138;2022-08-11T03:47:56;101248.25;;;18.89;43.98
12182;BME280;6154;51.550;12.138;2022-08-11T03:50:46;101254.06;;;18.83;46.24
12182;BME280;6154;51.550;12.138;2022-08-11T03:53:34;101256.84;;;18.71;47.23
12182;BME280;6154;51.550;12.138;2022-08-11T03:56:21;101256.87;;;18.58;46.58
12182;BME280;6154;51.550;12.138;2022-08-11T04:05:31;101262.19;;;18.23;48.70
12182;BME280;6154;51.550;12.138;2022-08-11T04:08:29;101257.41;;;18.15;48.83
12182;BME280;6154;51.550;12.138;2022-08-11T04:14:46;101267.28;;;18.02;48.92
12182;BME280;6154;51.550;12.138;2022-08-11T04:17:55;101261.53;;;17.95;48.61
12182;BME280;6154;51.550;12.138;2022-08-11T04:20:43;101255.31;;;17.95;48.96
12182;BME280;6154;51.550;12.138;2022-08-11T04:23:35;101261.41;;;17.97;47.94
12182;BME280;6154;51.550;12.138;2022-08-11T04:29:49;101264.50;;;18.03;48.11
12182;BME280;6154;51.550;12.138;2022-08-11T04:35:37;101258.69;;;18.09;47.84
12182;BME280;6154;51.550;12.138;2022-08-11T04:38:48;101262.00;;;18.13;46.43
12182;BME280;6154;51.550;12.138;2022-08-11T04:42:05;101272.81;;;18.24;48.37
12182;BME280;6154;51.550;12.138;2022-08-11T04:45:19;101265.28;;;18.29;49.32
12182;BME280;6154;51.550;12.138;2022-08-11T04:48:05;101267.28;;;18.38;47.63
12182;BME280;6154;51.550;12.138;2022-08-11T04:51:02;101269.50;;;18.45;47.41
12182;BME280;6154;51.550;12.138;2022-08-11T04:53:59;101267.94;;;18.53;45.43
12182;BME280;6154;51.550;12.138;2022-08-11T04:57:01;101265.53;;;18.61;46.05
12182;BME280;6154;51.550;12.138;2022-08-11T05:00:04;101262.31;;;18.69;46.46
12182;BME280;6154;51.550;12.138;2022-08-11T05:09:18;101271.31;;;19.03;47.57
12182;BME280;6154;51.550;12.138;2022-08-11T05:12:01;101268.06;;;19.11;48.65
12182;BME280;6154;51.550;12.138;2022-08-11T05:14:34;101272.00;;;19.29;47.20
12182;BME280;6154;51.550;12.138;2022-08-11T05:17:26;101266.31;;;19.45;45.32
12182;BME280;6154;51.550;12.138;2022-08-11T05:20:15;101267.66;;;19.62;45.71
12182;BME280;6154;51.550;12.138;2022-08-11T05:23:04;101263.63;;;19.78;44.75
12182;BME280;6154;51.550;12.138;2022-08-11T05:25:55;101264.34;;;19.92;45.69
12182;BME280;6154;51.550;12.138;2022-08-11T05:29:04;101270.06;;;20.09;45.63
12182;BME280;6154;51.550;12.138;2022-08-11T05:31:56;101272.47;;;20.24;45.04
12182;BME280;6154;51.550;12.138;2022-08-11T05:34:47;101279.69;;;20.34;45.40
12182;BME280;6154;51.550;12.138;2022-08-11T05:37:24;101277.84;;;20.46;45.60
12182;BME280;6154;51.550;12.138;2022-08-11T05:40:04;101278.06;;;20.54;46.09
12182;BME280;6154;51.550;12.138;2022-08-11T05:42:55;101277.63;;;20.70;44.68
12182;BME280;6154;51.550;12.138;2022-08-11T05:45:43;101275.72;;;20.82;45.35
12182;BME280;6154;51.550;12.138;2022-08-11T05:48:35;101276.66;;;20.92;44.44
12182;BME280;6154;51.550;12.138;2022-08-11T05:51:32;101275.88;;;21.01;44.88
12182;BME280;6154;51.550;12.138;2022-08-11T05:54:24;101278.97;;;21.17;47.17
12182;BME280;6154;51.550;12.138;2022-08-11T05:57:18;101276.38;;;21.27;44.74
12182;BME280;6154;51.550;12.138;2022-08-11T06:00:09;101284.53;;;21.37;45.21
12182;BME280;6154;51.550;12.138;2022-08-11T06:02:40;101282.44;;;21.50;44.60
12182;BME280;6154;51.550;12.138;2022-08-11T06:05:10;101290.16;;;21.64;44.17
12182;BME280;6154;51.550;12.138;2022-08-11T06:07:40;101285.94;;;21.71;44.53
12182;BME280;6154;51.550;12.138;2022-08-11T06:10:25;101289.69;;;21.80;44.29
12182;BME280;6154;51.550;12.138;2022-08-11T06:12:56;101289.91;;;21.98;46.06
12182;BME280;6154;51.550;12.138;2022-08-11T06:15:30;101282.16;;;22.14;43.86
12182;BME280;6154;51.550;12.138;2022-08-11T06:18:00;101284.47;;;22.28;44.14
12182;BME280;6154;51.550;12.138;2022-08-11T06:20:30;101284.75;;;22.45;43.24
12182;BME280;6154;51.550;12.138;2022-08-11T06:23:05;101283.94;;;22.63;43.17
12182;BME280;6154;51.550;12.138;2022-08-11T06:25:35;101285.38;;;22.77;43.04
12182;BME280;6154;51.550;12.138;2022-08-11T06:28:05;101292.06;;;22.92;43.26
12182;BME280;6154;51.550;12.138;2022-08-11T06:30:37;101287.09;;;23.07;42.86
12182;BME280;6154;51.550;12.138;2022-08-11T06:33:08;101290.75;;;23.26;42.96
12182;BME280;6154;51.550;12.138;2022-08-11T06:35:46;101294.69;;;23.41;42.56
12182;BME280;6154;51.550;12.138;2022-08-11T06:38:37;101293.94;;;23.58;43.15
12182;BME280;6154;51.550;12.138;2022-08-11T06:41:13;101297.16;;;23.81;44.12
12182;BME280;6154;51.550;12.138;2022-08-11T06:44:14;101299.22;;;23.97;42.78
12182;BME280;6154;51.550;12.138;2022-08-11T06:46:46;101299.66;;;24.20;42.75
12182;BME280;6154;51.550;12.138;2022-08-11T06:49:18;101302.19;;;24.31;42.12
12182;BME280;6154;51.550;12.138;2022-08-11T06:52:06;101307.38;;;24.42;41.96
12182;BME280;6154;51.550;12.138;2022-08-11T06:54:57;101304.87;;;24.58;41.73
12182;BME280;6154;51.550;12.138;2022-08-11T06:57:32;101311.34;;;24.83;41.37
12182;BME280;6154;51.550;12.138;2022-08-11T07:00:19;101299.53;;;25.02;41.25
12182;BME280;6154;51.550;12.138;2022-08-11T07:03:02;101309.88;;;25.25;40.94
12182;BME280;6154;51.550;12.138;2022-08-11T07:05:40;101312.25;;;25.45;41.24
12182;BME280;6154;51.550;12.138;2022-08-11T07:08:29;101312.53;;;25.68;41.20
12182;BME280;6154;51.550;12.138;2022-08-11T07:11:48;101306.38;;;25.84;41.00
12182;BME280;6154;51.550;12.138;2022-08-11T07:14:46;101303.09;;;26.06;41.10
12182;BME280;6154;51.550;12.138;2022-08-11T07:17:37;101298.09;;;26.28;40.47
12182;BME280;6154;51.550;12.138;2022-08-11T07:20:09;101301.03;;;26.51;40.31
12182;BME280;6154;51.550;12.138;2022-08-11T07:22:58;101287.50;;;26.67;40.16
12182;BME280;6154;51.550;12.138;2022-08-11T07:25:48;101295.47;;;26.85;39.76
12182;BME280;6154;51.550;12.138;2022-08-11T07:28:39;101289.22;;;27.01;39.61
12182;BME280;6154;51.550;12.138;2022-08-11T07:31:33;101294.84;;;27.07;39.25
12182;BME280;6154;51.550;12.138;2022-08-11T07:34:11;101292.28;;;27.22;39.15
12182;BME280;6154;51.550;12.138;2022-08-11T07:36:49;101292.09;;;27.32;38.64
12182;BME280;6154;51.550;12.138;2022-08-11T07:39:20;101285.44;;;27.50;38.96
12182;BME280;6154;51.550;12.138;2022-08-11T07:41:50;101288.47;;;27.72;39.02
12182;BME280;6154;51.550;12.138;2022-08-11T07:44:19;101286.06;;;27.77;38.66
12182;BME280;6154;51.550;12.138;2022-08-11T07:46:49;101287.34;;;27.97;38.67
12182;BME280;6154;51.550;12.138;2022-08-11T07:49:36;101285.59;;;28.04;38.24
12182;BME280;6154;51.550;12.138;2022-08-11T07:52:27;101293.03;;;28.19;38.30
12182;BME280;6154;51.550;12.138;2022-08-11T07:55:02;101295.03;;;28.33;37.64
12182;BME280;6154;51.550;12.138;2022-08-11T07:57:34;101295.59;;;28.51;37.97
12182;BME280;6154;51.550;12.138;2022-08-11T08:00:43;101300.94;;;28.68;37.81
12182;BME280;6154;51.550;12.138;2022-08-11T08:03:38;101298.44;;;28.89;37.55
12182;BME280;6154;51.550;12.138;2022-08-11T08:06:25;101297.09;;;29.08;37.35
12182;BME280;6154;51.550;12.138;2022-08-11T08:09:16;101288.25;;;29.20;37.10
12182;BME280;6154;51.550;12.138;2022-08-11T08:12:04;101290.72;;;29.30;36.77
12182;BME280;6154;51.550;12.138;2022-08-11T08:14:51;101290.41;;;29.48;37.17
12182;BME280;6154;51.550;12.138;2022-08-11T08:17:39;101285.59;;;29.80;36.92
12182;BME280;6154;51.550;12.138;2022-08-11T08:20:45;101294.44;;;30.11;36.41
12182;BME280;6154;51.550;12.138;2022-08-11T08:23:14;101285.44;;;30.32;36.37
12182;BME280;6154;51.550;12.138;2022-08-11T08:25:44;101282.69;;;30.47;36.25
12182;BME280;6154;51.550;12.138;2022-08-11T08:28:15;101285.59;;;30.45;35.52
12182;BME280;6154;51.550;12.138;2022-08-11T08:30:44;101279.81;;;30.55;35.62
12182;BME280;6154;51.550;12.138;2022-08-11T08:33:19;101277.25;;;30.68;35.76
12182;BME280;6154;51.550;12.138;2022-08-11T08:35:56;101274.56;;;30.75;35.08
12182;BME280;6154;51.550;12.138;2022-08-11T08:38:39;101275.16;;;30.92;33.87
12182;BME280;6154;51.550;12.138;2022-08-11T08:41:10;101274.06;;;31.14;35.08
12182;BME280;6154;51.550;12.138;2022-08-11T08:43:44;101277.84;;;31.34;34.51
12182;BME280;6154;51.550;12.138;2022-08-11T08:46:21;101276.50;;;31.52;34.52
12182;BME280;6154;51.550;12.138;2022-08-11T08:48:54;101267.50;;;31.64;33.81
12182;BME280;6154;51.550;12.138;2022-08-11T08:51:23;101265.75;;;31.85;34.37
12182;BME280;6154;51.550;12.138;2022-08-11T08:54:29;101262.03;;;31.99;33.80
12182;BME280;6154;51.550;12.138;2022-08-11T08:57:02;101259.72;;;32.02;32.05
12182;BME280;6154;51.550;12.138;2022-08-11T08:59:35;101258.97;;;32.28;33.45
12182;BME280;6154;51.550;12.138;2022-08-11T09:02:16;101251.81;;;32.34;32.59
12182;BME280;6154;51.550;12.138;2022-08-11T09:05:06;101252.50;;;32.56;33.08
12182;BME280;6154;51.550;12.138;2022-08-11T09:07:36;101255.03;;;32.64;32.88
12182;BME280;6154;51.550;12.138;2022-08-11T09:10:07;101253.38;;;32.76;32.99
12182;BME280;6154;51.550;12.138;2022-08-11T09:12:40;101251.72;;;32.95;32.41
12182;BME280;6154;51.550;12.138;2022-08-11T09:15:10;101250.03;;;33.01;31.41
12182;BME280;6154;51.550;12.138;2022-08-11T09:17:44;101250.84;;;33.14;32.08
12182;BME280;6154;51.550;12.138;2022-08-11T09:20:15;101254.22;;;33.30;31.63
12182;BME280;6154;51.550;12.138;2022-08-11T09:22:46;101254.22;;;33.43;32.14
12182;BME280;6154;51.550;12.138;2022-08-11T09:25:55;101252.91;;;33.65;32.05
12182;BME280;6154;51.550;12.138;2022-08-11T09:28:44;101247.37;;;33.79;31.50
12182;BME280;6154;51.550;12.138;2022-08-11T09:31:13;101252.84;;;33.92;30.37
12182;BME280;6154;51.550;12.138;2022-08-11T09:33:42;101248.38;;;33.97;31.20
12182;BME280;6154;51.550;12.138;2022-08-11T09:36:12;101244.72;;;34.10;30.71
12182;BME280;6154;51.550;12.138;2022-08-11T09:38:59;101243.56;;;34.24;30.77
12182;BME280;6154;51.550;12.138;2022-08-11T09:41:48;101242.09;;;34.28;30.27
12182;BME280;6154;51.550;12.138;2022-08-11T09:44:30;101236.50;;;34.48;30.42
12182;BME280;6154;51.550;12.138;2022-08-11T09:47:21;101238.44;;;34.66;29.93
12182;BME280;6154;51.550;12.138;2022-08-11T09:49:51;101245.81;;;34.72;30.09
12182;BME280;6154;51.550;12.138;2022-08-11T09:52:22;101238.75;;;34.90;29.92
12182;BME280;6154;51.550;12.138;2022-08-11T09:54:51;101231.88;;;34.99;29.91
12182;BME280;6154;51.550;12.138;2022-08-11T09:57:21;101224.63;;;35.04;29.78
12182;BME280;6154;51.550;12.138;2022-08-11T10:00:11;101228.84;;;35.25;29.72
12182;BME280;6154;51.550;12.138;2022-08-11T10:02:43;101224.72;;;35.34;28.71
12182;BME280;6154;51.550;12.138;2022-08-11T10:05:14;101221.84;;;35.29;28.20
12182;BME280;6154;51.550;12.138;2022-08-11T10:08:02;101226.00;;;35.38;29.04
12182;BME280;6154;51.550;12.138;2022-08-11T10:10:34;101223.63;;;35.60;29.20
12182;BME280;6154;51.550;12.138;2022-08-11T10:13:06;101207.53;;;35.57;27.60
12182;BME280;6154;51.550;12.138;2022-08-11T10:15:58;101213.47;;;35.61;27.94
12182;BME280;6154;51.550;12.138;2022-08-11T10:18:46;101199.63;;;35.49;25.82
12182;BME280;6154;51.550;12.138;2022-08-11T10:21:27;101192.94;;;35.57;26.74
12182;BME280;6154;51.550;12.138;2022-08-11T10:23:59;101199.63;;;35.49;25.32
12182;BME280;6154;51.550;12.138;2022-08-11T10:26:47;101199.16;;;35.52;27.53
12182;BME280;6154;51.550;12.138;2022-08-11T10:29:23;101191.41;;;35.61;28.01
12182;BME280;6154;51.550;12.138;2022-08-11T10:32:13;101202.09;;;35.87;28.02
12182;BME280;6154;51.550;12.138;2022-08-11T10:35:24;101194.62;;;36.06;27.35
12182;BME280;6154;51.550;12.138;2022-08-11T10:37:53;101186.47;;;35.99;27.76
12182;BME280;6154;51.550;12.138;2022-08-11T10:40:37;101185.84;;;35.97;27.47
12182;BME280;6154;51.550;12.138;2022-08-11T10:43:07;101188.16;;;36.01;27.04
12182;BME280;6154;51.550;12.138;2022-08-11T10:45:42;101185.13;;;36.20;27.50
12182;BME280;6154;51.550;12.138;2022-08-11T10:48:34;101188.78;;;36.44;27.21
12182;BME280;6154;51.550;12.138;2022-08-11T10:51:04;101185.09;;;36.50;25.73
12182;BME280;6154;51.550;12.138;2022-08-11T10:53:42;101178.84;;;36.67;26.90
12182;BME280;6154;51.550;12.138;2022-08-11T10:56:32;101180.69;;;36.73;26.90
12182;BME280;6154;51.550;12.138;2022-08-11T10:59:19;101179.44;;;36.45;26.48
12182;BME280;6154;51.550;12.138;2022-08-11T11:01:51;101179.44;;;36.15;26.93
12182;BME280;6154;51.550;12.138;2022-08-11T11:04:29;101166.09;;;36.01;27.18
12182;BME280;6154;51.550;12.138;2022-08-11T11:07:05;101163.34;;;36.01;25.88
12182;BME280;6154;51.550;12.138;2022-08-11T11:09:41;101162.87;;;36.04;26.14
12182;BME280;6154;51.550;12.138;2022-08-11T11:12:15;101157.91;;;36.24;26.88
12182;BME280;6154;51.550;12.138;2022-08-11T11:15:05;101157.59;;;36.44;25.72
12182;BME280;6154;51.550;12.138;2022-08-11T11:17:55;101155.34;;;36.52;26.51
12182;BME280;6154;51.550;12.138;2022-08-11T11:20:34;101143.72;;;36.50;26.35
12182;BME280;6154;51.550;12.138;2022-08-11T11:23:15;101149.22;;;36.39;24.28
12182;BME280;6154;51.550;12.138;2022-08-11T11:25:54;101144.78;;;36.49;24.87
12182;BME280;6154;51.550;12.138;2022-08-11T11:28:52;101138.53;;;36.42;23.87
12182;BME280;6154;51.550;12.138;2022-08-11T11:31:33;101141.53;;;36.41;23.60
12182;BME280;6154;51.550;12.138;2022-08-11T11:34:16;101133.06;;;36.24;24.75
12182;BME280;6154;51.550;12.138;2022-08-11T11:36:48;101134.47;;;36.45;24.14
12182;BME280;6154;51.550;12.138;2022-08-11T11:39:20;101125.84;;;36.65;25.57
12182;BME280;6154;51.550;12.138;2022-08-11T11:41:52;101122.72;;;36.73;25.69
12182;BME280;6154;51.550;12.138;2022-08-11T11:44:22;101125.88;;;36.88;26.18
12182;BME280;6154;51.550;12.138;2022-08-11T11:46:51;101133.31;;;36.99;25.58
12182;BME280;6154;51.550;12.138;2022-08-11T11:49:21;101132.81;;;37.02;25.54
12182;BME280;6154;51.550;12.138;2022-08-11T11:51:57;101123.78;;;37.07;25.40
12182;BME280;6154;51.550;12.138;2022-08-11T11:54:28;101113.94;;;37.11;24.81
12182;BME280;6154;51.550;12.138;2022-08-11T11:56:58;101118.63;;;37.10;25.36
12182;BME280;6154;51.550;12.138;2022-08-11T11:59:49;101113.78;;;37.18;25.80
12182;BME280;6154;51.550;12.138;2022-08-11T12:02:36;101115.72;;;37.29;25.38
12182;BME280;6154;51.550;12.138;2022-08-11T12:05:08;101119.31;;;37.41;25.50
12182;BME280;6154;51.550;12.138;2022-08-11T12:07:39;101111.22;;;37.51;25.08
12182;BME280;6154;51.550;12.138;2022-08-11T12:10:39;101113.62;;;37.48;24.92
12182;BME280;6154;51.550;12.138;2022-08-11T12:13:08;101100.63;;;37.60;25.32
12182;BME280;6154;51.550;12.138;2022-08-11T12:15:53;101104.63;;;37.52;25.37
12182;BME280;6154;51.550;12.138;2022-08-11T12:18:44;101094.19;;;37.43;24.94
12182;BME280;6154;51.550;12.138;2022-08-11T12:21:15;101101.34;;;37.55;24.96
12182;BME280;6154;51.550;12.138;2022-08-11T12:23:46;101089.19;;;37.56;24.99
12182;BME280;6154;51.550;12.138;2022-08-11T12:26:33;101085.34;;;37.57;24.03
12182;BME280;6154;51.550;12.138;2022-08-11T12:29:41;101079.34;;;37.60;24.44
12182;BME280;6154;51.550;12.138;2022-08-11T12:32:11;101076.19;;;37.40;24.80
12182;BME280;6154;51.550;12.138;2022-08-11T12:34:40;101075.75;;;37.31;24.71
12182;BME280;6154;51.550;12.138;2022-08-11T12:37:08;101066.50;;;37.14;24.87
12182;BME280;6154;51.550;12.138;2022-08-11T12:39:46;101073.97;;;37.13;24.69
12182;BME280;6154;51.550;12.138;2022-08-11T12:42:54;101067.66;;;36.90;22.51
12182;BME280;6154;51.550;12.138;2022-08-11T12:45:50;101069.16;;;37.21;24.75
12182;BME280;6154;51.550;12.138;2022-08-11T12:48:30;101065.78;;;37.19;23.68
12182;BME280;6154;51.550;12.138;2022-08-11T12:51:31;101073.22;;;37.30;23.76
12182;BME280;6154;51.550;12.138;2022-08-11T12:54:43;101064.28;;;37.28;24.05
12182;BME280;6154;51.550;12.138;2022-08-11T12:57:14;101066.12;;;37.34;23.93
12182;BME280;6154;51.550;12.138;2022-08-11T13:00:05;101065.09;;;37.52;24.05
12182;BME280;6154;51.550;12.138;2022-08-11T13:02:52;101062.91;;;37.54;23.85
12182;BME280;6154;51.550;12.138;2022-08-11T13:05:39;101054.88;;;37.52;23.75
12182;BME280;6154;51.550;12.138;2022-08-11T13:08:11;101043.41;;;36.92;23.52
12182;BME280;6154;51.550;12.138;2022-08-11T13:10:43;101044.66;;;37.12;23.53
12182;BME280;6154;51.550;12.138;2022-08-11T13:13:30;101035.00;;;37.27;23.76
12182;BME280;6154;51.550;12.138;2022-08-11T13:16:20;101042.78;;;37.42;24.26
12182;BME280;6154;51.550;12.138;2022-08-11T13:18:49;101039.81;;;37.60;23.86
12182;BME280;6154;51.550;12.138;2022-08-11T13:21:20;101043.56;;;37.82;24.02
12182;BME280;6154;51.550;12.138;2022-08-11T13:23:51;101041.72;;;38.05;23.73
12182;BME280;6154;51.550;12.138;2022-08-11T13:26:30;101036.22;;;38.21;23.63
12182;BME280;6154;51.550;12.138;2022-08-11T13:29:16;101039.91;;;38.10;22.90
12182;BME280;6154;51.550;12.138;2022-08-11T13:31:45;101029.41;;;38.12;23.46
12182;BME280;6154;51.550;12.138;2022-08-11T13:34:14;101027.06;;;38.21;23.61
12182;BME280;6154;51.550;12.138;2022-08-11T13:36:42;101026.47;;;38.36;23.43
12182;BME280;6154;51.550;12.138;2022-08-11T13:39:11;101019.94;;;38.42;23.03
12182;BME280;6154;51.550;12.138;2022-08-11T13:41:42;101021.28;;;38.39;23.01
12182;BME280;6154;51.550;12.138;2022-08-11T13:44:15;101022.12;;;38.40;22.74
12182;BME280;6154;51.550;12.138;2022-08-11T13:46:52;101007.59;;;38.49;23.05
12182;BME280;6154;51.550;12.138;2022-08-11T13:49:21;101001.81;;;38.51;22.62
12182;BME280;6154;51.550;12.138;2022-08-11T13:51:51;101000.31;;;38.65;22.83
12182;BME280;6154;51.550;12.138;2022-08-11T13:54:21;100992.00;;;38.82;22.79
12182;BME280;6154;51.550;12.138;2022-08-11T13:56:54;100991.84;;;38.94;21.85
12182;BME280;6154;51.550;12.138;2022-08-11T13:59:23;100995.47;;;38.94;20.93
12182;BME280;6154;51.550;12.138;2022-08-11T14:01:59;100983.94;;;38.80;22.35
12182;BME280;6154;51.550;12.138;2022-08-11T14:04:53;100979.69;;;38.95;22.23
12182;BME280;6154;51.550;12.138;2022-08-11T14:07:24;100974.19;;;39.22;21.84
12182;BME280;6154;51.550;12.138;2022-08-11T14:09:57;100973.50;;;39.36;21.86
12182;BME280;6154;51.550;12.138;2022-08-11T14:12:29;100978.47;;;39.34;21.14
12182;BME280;6154;51.550;12.138;2022-08-11T14:15:20;100965.06;;;38.99;20.53
12182;BME280;6154;51.550;12.138;2022-08-11T14:17:52;100967.72;;;38.89;21.37
12182;BME280;6154;51.550;12.138;2022-08-11T14:20:25;100963.25;;;38.66;22.04
12182;BME280;6154;51.550;12.138;2022-08-11T14:23:15;100957.38;;;38.79;21.99
12182;BME280;6154;51.550;12.138;2022-08-11T14:25:43;100958.19;;;38.80;21.97
12182;BME280;6154;51.550;12.138;2022-08-11T14:28:32;100967.00;;;38.77;22.07
12182;BME280;6154;51.550;12.138;2022-08-11T14:31:13;100960.62;;;38.76;21.15
12182;BME280;6154;51.550;12.138;2022-08-11T14:33:42;100963.78;;;38.85;21.97
12182;BME280;6154;51.550;12.138;2022-08-11T14:36:30;100953.66;;;38.96;21.95
12182;BME280;6154;51.550;12.138;2022-08-11T14:39:01;100961.69;;;38.97;21.83
12182;BME280;6154;51.550;12.138;2022-08-11T14:41:30;100958.16;;;39.02;22.08
12182;BME280;6154;51.550;12.138;2022-08-11T14:44:40;100956.69;;;39.16;21.94